Time;durP1;ratioP1;P1;durP2;ratioP2;P2;SDS_P1;SDS_P2;PMS_P1;PMS_P2;Temp;Humidity;BMP_temperature;BMP_pressure;BME280_temperature;BME280_humidity;BME280_pressure;Samples;Min_cycle;Max_cycle;Signal;HPM_P1;HPM_P2
2023/09/13 00:01:33;;;;;;;34.07;21.83;;;;;;;-145.18;100.00;46652.59;5092307;28;20040;-60
2023/09/13 00:03:59;;;;;;;30.57;20.73;;;;;;;-145.18;100.00;46650.63;5091216;28;20068;-60
2023/09/13 00:06:25;;;;;;;31.30;20.67;;;;;;;-145.18;100.00;46642.81;5093432;28;20104;-60
2023/09/13 00:08:50;;;;;;;31.67;21.20;;;;;;;-145.18;100.00;46650.63;5117759;27;20122;-61
2023/09/13 00:11:16;;;;;;;34.07;21.13;;;;;;;-145.18;100.00;46642.81;5091897;28;20407;-60
2023/09/13 00:13:41;;;;;;;33.37;21.17;;;;;;;-145.18;100.00;46648.69;5094228;28;20391;-60
2023/09/13 00:16:07;;;;;;;33.43;20.50;;;;;;;-145.18;100.00;46652.59;5090120;28;20024;-60
2023/09/13 00:18:33;;;;;;;38.13;21.37;;;;;;;-145.18;100.00;46650.63;5091796;28;20047;-60
2023/09/13 00:20:58;;;;;;;34.83;22.43;;;;;;;-145.18;100.00;46640.88;5091932;28;20077;-60
2023/09/13 00:23:24;;;;;;;38.40;22.63;;;;;;;-145.18;100.00;46638.91;5093217;28;20027;-60
2023/09/13 00:25:49;;;;;;;41.27;21.40;;;;;;;-145.18;100.00;46640.88;5092476;28;20032;-60
2023/09/13 00:28:15;;;;;;;37.07;22.93;;;;;;;-145.18;100.00;46640.88;5092533;28;20034;-60
2023/09/13 00:30:40;;;;;;;35.53;21.50;;;;;;;-145.18;100.00;46640.88;5088604;28;20060;-60
2023/09/13 00:33:05;;;;;;;34.17;21.93;;;;;;;-145.18;100.00;46638.91;5093161;28;20438;-60
2023/09/13 00:35:31;;;;;;;41.73;24.03;;;;;;;-145.18;100.00;46638.91;5092385;28;20035;-60
2023/09/13 00:37:56;;;;;;;34.47;21.13;;;;;;;-145.18;100.00;46638.91;5090505;28;20045;-60
2023/09/13 00:40:21;;;;;;;35.93;21.30;;;;;;;-145.18;100.00;46636.94;5091256;28;20107;-60
2023/09/13 00:42:47;;;;;;;37.40;21.57;;;;;;;-145.18;100.00;46638.91;5091503;28;20039;-60
2023/09/13 00:45:12;;;;;;;32.33;20.87;;;;;;;-145.18;100.00;46638.91;5089988;28;20024;-60
2023/09/13 00:47:40;;;;;;;38.20;23.23;;;;;;;-145.18;100.00;46640.88;5092394;28;20102;-60
2023/09/13 00:50:08;;;;;;;39.90;23.30;;;;;;;-145.18;100.00;46638.91;5091837;28;20028;-60
2023/09/13 00:52:34;;;;;;;39.30;22.93;;;;;;;-145.18;100.00;46635.00;5091562;28;20032;-60
2023/09/13 00:55:00;;;;;;;36.60;22.93;;;;;;;-145.18;100.00;46635.00;5087685;28;20020;-60
2023/09/13 00:57:25;;;;;;;39.43;22.73;;;;;;;-145.18;100.00;46636.94;5092602;28;20114;-61
2023/09/13 00:59:51;;;;;;;37.33;23.13;;;;;;;-145.18;100.00;46640.88;5089492;28;20032;-60
2023/09/13 01:02:17;;;;;;;40.63;23.37;;;;;;;-145.18;100.00;46640.88;5091998;28;20043;-61
2023/09/13 01:04:42;;;;;;;40.53;23.67;;;;;;;-145.18;100.00;46640.88;5090509;28;20032;-60
2023/09/13 01:07:08;;;;;;;45.90;23.80;;;;;;;-145.18;100.00;46638.91;5091977;28;20032;-61
2023/09/13 01:09:34;;;;;;;39.53;24.30;;;;;;;-145.18;100.00;46638.91;5090613;28;20198;-68
2023/09/13 01:12:00;;;;;;;44.50;24.70;;;;;;;-145.18;100.00;46642.81;5092374;28;20043;-68
2023/09/13 01:14:26;;;;;;;44.10;25.43;;;;;;;-145.18;100.00;46638.91;5091370;28;20537;-81
2023/09/13 01:17:02;;;;;;;43.27;25.40;;;;;;;-145.18;100.00;46642.81;5091268;28;20028;-75
2023/09/13 01:19:47;;;;;;;45.67;24.90;;;;;;;-145.18;100.00;46642.81;5088698;28;20028;-73
2023/09/13 01:22:16;;;;;;;43.03;24.57;;;;;;;-145.18;100.00;46640.88;5087905;28;20032;-71
2023/09/13 01:24:44;;;;;;;42.97;22.73;;;;;;;-145.18;100.00;46640.88;5091424;28;20563;-71
2023/09/13 01:27:36;;;;;;;40.50;23.30;;;;;;;-145.18;100.00;46650.63;5088621;28;20032;-70
2023/09/13 01:30:04;;;;;;;38.90;21.97;;;;;;;-145.18;100.00;46640.88;5090824;28;20143;-69
2023/09/13 01:32:32;;;;;;;39.20;23.30;;;;;;;-145.18;100.00;46650.63;5090791;28;20049;-70
2023/09/13 01:34:58;;;;;;;35.97;22.60;;;;;;;-145.18;100.00;46642.81;5090520;28;20016;-71
2023/09/13 01:37:23;;;;;;;35.43;22.30;;;;;;;-145.18;100.00;46652.59;5089728;28;20028;-70
2023/09/13 01:39:48;;;;;;;36.47;20.93;;;;;;;-145.18;100.00;46642.81;5117369;27;20036;-70
2023/09/13 01:42:15;;;;;;;35.67;20.73;;;;;;;-145.18;100.00;46650.63;5087409;28;20036;-70
2023/09/13 01:44:43;;;;;;;36.03;21.77;;;;;;;-145.18;100.00;46642.81;5089694;28;20495;-70
2023/09/13 01:47:09;;;;;;;34.53;21.03;;;;;;;-145.18;100.00;46640.88;5087685;28;20028;-70
2023/09/13 01:49:36;;;;;;;39.57;23.73;;;;;;;-145.18;100.00;46642.81;5089246;28;20399;-70
2023/09/13 01:52:05;;;;;;;37.10;21.53;;;;;;;-145.18;100.00;46638.91;5089858;28;20068;-70
2023/09/13 01:54:34;;;;;;;38.77;20.37;;;;;;;-145.18;100.00;46640.88;5086049;28;20022;-70
2023/09/13 01:57:00;;;;;;;34.83;17.60;;;;;;;-145.18;100.00;46640.88;5088904;28;20546;-69
2023/09/13 01:59:25;;;;;;;31.57;20.37;;;;;;;-145.18;100.00;46654.53;5091271;28;20123;-69
2023/09/13 02:01:51;;;;;;;34.70;19.50;;;;;;;-145.18;100.00;46656.50;5088615;28;20111;-69
2023/09/13 02:04:16;;;;;;;34.50;19.77;;;;;;;-145.18;100.00;46652.59;5089063;28;20059;-69
2023/09/13 02:06:41;;;;;;;31.10;17.53;;;;;;;-145.18;100.00;46650.63;5091175;28;20433;-69
2023/09/13 02:09:07;;;;;;;31.17;17.10;;;;;;;-145.18;100.00;46650.63;5090577;28;20043;-69
2023/09/13 02:11:32;;;;;;;32.30;18.03;;;;;;;-145.18;100.00;46656.50;5089670;28;20039;-69
2023/09/13 02:13:57;;;;;;;39.43;21.87;;;;;;;-145.18;100.00;46642.81;5092152;28;20024;-70
2023/09/13 02:16:23;;;;;;;35.70;19.93;;;;;;;-145.18;100.00;46652.59;5091008;28;20050;-70
2023/09/13 02:18:50;;;;;;;36.97;20.37;;;;;;;-145.18;100.00;46652.59;5090064;28;20039;-70
2023/09/13 02:21:16;;;;;;;40.13;20.37;;;;;;;-145.18;100.00;46652.59;5088890;28;20063;-69
2023/09/13 02:23:42;;;;;;;47.20;22.67;;;;;;;-145.18;100.00;46652.59;5090948;28;20471;-69
2023/09/13 02:26:17;;;;;;;48.67;24.47;;;;;;;-145.18;100.00;46654.53;5086736;28;20138;-70
2023/09/13 02:28:42;;;;;;;50.47;24.65;;;;;;;-145.18;100.00;46654.53;5090417;28;20085;-69
2023/09/13 02:31:07;;;;;;;52.83;25.70;;;;;;;-145.18;100.00;46642.81;5090509;28;20048;-70
2023/09/13 02:33:33;;;;;;;58.73;26.90;;;;;;;-145.18;100.00;46650.63;5088368;28;20031;-70
2023/09/13 02:35:58;;;;;;;49.60;25.17;;;;;;;-145.18;100.00;46654.53;5086430;28;20081;-69
2023/09/13 02:38:23;;;;;;;50.63;25.40;;;;;;;-145.18;100.00;46650.63;5086269;28;20036;-70
2023/09/13 02:40:50;;;;;;;49.73;25.27;;;;;;;-145.18;100.00;46650.63;5089657;28;20395;-70
2023/09/13 02:43:15;;;;;;;48.80;24.60;;;;;;;-145.18;100.00;46640.88;5090162;28;20475;-70
2023/09/13 02:45:41;;;;;;;46.17;25.10;;;;;;;-145.18;100.00;46652.59;5084799;28;20039;-70
2023/09/13 02:48:06;;;;;;;51.57;26.63;;;;;;;-145.18;100.00;46652.59;5087053;28;20048;-70
2023/09/13 02:50:31;;;;;;;52.63;26.10;;;;;;;-145.18;100.00;46640.88;5089156;28;20118;-69
2023/09/13 02:52:57;;;;;;;55.27;27.70;;;;;;;-145.18;100.00;46652.59;5088894;28;20047;-70
2023/09/13 02:55:22;;;;;;;51.63;27.63;;;;;;;-145.18;100.00;46652.59;5090596;28;20118;-69
2023/09/13 02:57:48;;;;;;;51.63;26.13;;;;;;;-145.18;100.00;46650.63;5088836;28;20161;-69
2023/09/13 03:00:14;;;;;;;48.67;25.30;;;;;;;-145.18;100.00;46650.63;5090477;28;20031;-70
2023/09/13 03:02:39;;;;;;;48.17;24.93;;;;;;;-145.18;100.00;46650.63;5090097;28;20047;-70
2023/09/13 03:05:05;;;;;;;51.00;24.70;;;;;;;-145.18;100.00;46652.59;5069922;28;20036;-70
2023/09/13 03:07:30;;;;;;;47.93;23.47;;;;;;;-145.18;100.00;46648.69;5090276;28;20055;-70
2023/09/13 03:09:59;;;;;;;43.50;22.73;;;;;;;-145.18;100.00;46654.53;5088847;28;20169;-69
2023/09/13 03:12:24;;;;;;;45.00;22.93;;;;;;;-145.18;100.00;46640.88;5088177;28;20118;-70
2023/09/13 03:14:50;;;;;;;46.07;22.47;;;;;;;-145.18;100.00;46652.59;5089558;28;20111;-70
2023/09/13 03:17:15;;;;;;;46.43;24.07;;;;;;;-145.18;100.00;46650.63;5089412;28;20153;-70
2023/09/13 03:19:40;;;;;;;42.03;22.47;;;;;;;-145.18;100.00;46656.50;5090621;28;20123;-70
2023/09/13 03:22:06;;;;;;;45.13;22.70;;;;;;;-145.18;100.00;46650.63;5089978;28;20487;-70
2023/09/13 03:24:31;;;;;;;43.53;22.33;;;;;;;-145.18;100.00;46658.44;5090204;28;20024;-70
2023/09/13 03:26:57;;;;;;;44.53;23.67;;;;;;;-145.18;100.00;46650.63;5090249;28;20036;-70
2023/09/13 03:29:22;;;;;;;45.23;23.37;;;;;;;-145.18;100.00;46652.59;5090724;28;20051;-60
2023/09/13 03:31:48;;;;;;;45.80;22.30;;;;;;;-145.18;100.00;46652.59;5089105;28;20161;-60
2023/09/13 03:34:13;;;;;;;40.20;21.83;;;;;;;-145.18;100.00;46642.81;5090273;28;20040;-60
2023/09/13 03:36:39;;;;;;;45.50;22.07;;;;;;;-145.18;100.00;46656.50;5087543;28;20372;-60
2023/09/13 03:39:05;;;;;;;46.50;24.60;;;;;;;-145.18;100.00;46652.59;5090616;28;20028;-60
2023/09/13 03:41:31;;;;;;;44.83;21.93;;;;;;;-145.18;100.00;46654.53;5090021;28;20039;-60
2023/09/13 03:43:56;;;;;;;37.50;22.07;;;;;;;-145.18;100.00;46652.59;5089254;28;20064;-60
2023/09/13 03:46:22;;;;;;;43.27;23.23;;;;;;;-145.18;100.00;46656.50;5086225;28;20061;-60
2023/09/13 03:48:47;;;;;;;51.33;25.73;;;;;;;-145.18;100.00;46650.63;5089317;28;20035;-60
2023/09/13 03:51:12;;;;;;;47.17;24.37;;;;;;;-145.18;100.00;46652.59;5086375;28;20033;-60
2023/09/13 03:53:38;;;;;;;53.30;27.17;;;;;;;-145.18;100.00;46656.50;5117592;28;20121;-60
2023/09/13 03:56:04;;;;;;;55.87;26.17;;;;;;;-145.18;100.00;46654.53;5088158;28;20044;-60
2023/09/13 03:58:29;;;;;;;45.27;24.73;;;;;;;-145.18;100.00;46652.59;5088924;28;20491;-60
2023/09/13 04:00:55;;;;;;;51.70;26.00;;;;;;;-145.18;100.00;46652.59;5084593;28;20052;-60
2023/09/13 04:03:21;;;;;;;50.17;25.27;;;;;;;-145.18;100.00;46654.53;5087933;28;20531;-60
2023/09/13 04:05:47;;;;;;;49.83;24.47;;;;;;;-145.18;100.00;46654.53;5085950;28;20032;-60
2023/09/13 04:08:12;;;;;;;51.60;23.63;;;;;;;-145.18;100.00;46654.53;5083892;28;20038;-60
2023/09/13 04:10:38;;;;;;;46.90;24.00;;;;;;;-145.18;100.00;46656.50;5089281;28;20077;-60
2023/09/13 04:13:04;;;;;;;51.40;26.80;;;;;;;-145.18;100.00;46656.50;5088110;28;20032;-60
2023/09/13 04:15:29;;;;;;;55.87;26.37;;;;;;;-145.18;100.00;46656.50;5089204;28;20486;-60
2023/09/13 04:17:55;;;;;;;57.47;26.53;;;;;;;-145.18;100.00;46654.53;5089135;28;20044;-60
2023/09/13 04:20:21;;;;;;;57.90;25.37;;;;;;;-145.18;100.00;46652.59;5091991;28;20047;-60
2023/09/13 04:22:46;;;;;;;47.87;23.43;;;;;;;-145.18;100.00;46638.91;5092457;28;20097;-60
2023/09/13 04:25:12;;;;;;;52.93;26.67;;;;;;;-145.18;100.00;46652.59;5092545;28;20062;-60
2023/09/13 04:27:37;;;;;;;53.83;25.73;;;;;;;-145.18;100.00;46650.63;5089510;28;20031;-60
2023/09/13 04:30:03;;;;;;;53.97;24.13;;;;;;;-145.18;100.00;46650.63;5093556;28;20036;-60
2023/09/13 04:32:28;;;;;;;43.20;23.70;;;;;;;-145.18;100.00;46638.91;5091404;28;20056;-60
2023/09/13 04:34:54;;;;;;;48.77;22.80;;;;;;;-145.18;100.00;46652.59;5092380;28;20039;-60
2023/09/13 04:37:20;;;;;;;49.63;24.03;;;;;;;-145.18;100.00;46648.69;5092161;28;20036;-61
2023/09/13 04:39:45;;;;;;;50.03;23.40;;;;;;;-145.18;100.00;46650.63;5092113;28;20503;-60
2023/09/13 04:42:11;;;;;;;40.53;21.87;;;;;;;-145.18;100.00;46652.59;5090223;28;20115;-60
2023/09/13 04:44:37;;;;;;;40.47;21.10;;;;;;;-145.18;100.00;46640.88;5084848;28;20437;-60
2023/09/13 04:47:03;;;;;;;48.40;22.20;;;;;;;-145.18;100.00;46650.63;5083778;28;20036;-60
2023/09/13 04:49:29;;;;;;;46.80;20.27;;;;;;;-145.18;100.00;46642.81;5083062;28;20133;-60
2023/09/13 04:51:56;;;;;;;45.33;21.97;;;;;;;-145.18;100.00;46650.63;5082864;28;20108;-60
2023/09/13 04:54:22;;;;;;;45.43;22.20;;;;;;;-145.18;100.00;46642.81;5082270;28;20037;-60
2023/09/13 04:56:51;;;;;;;37.13;20.53;;;;;;;-145.18;100.00;46638.91;5082047;28;20016;-60
2023/09/13 04:59:16;;;;;;;38.97;20.07;;;;;;;-145.18;100.00;46640.88;5082000;28;20085;-60
2023/09/13 05:01:42;;;;;;;34.27;19.70;;;;;;;-145.18;100.00;46650.63;5081387;28;20430;-60
2023/09/13 05:04:07;;;;;;;48.17;21.63;;;;;;;-145.18;100.00;46640.88;5080357;28;20059;-60
2023/09/13 05:06:33;;;;;;;46.87;21.57;;;;;;;-145.18;100.00;46640.88;5085454;28;20062;-60
2023/09/13 05:08:58;;;;;;;34.50;18.43;;;;;;;-145.18;100.00;46638.91;5090197;28;20059;-60
2023/09/13 05:11:24;;;;;;;41.33;20.97;;;;;;;-145.18;100.00;46652.59;5085533;28;20070;-60
2023/09/13 05:13:50;;;;;;;41.37;20.63;;;;;;;-145.18;100.00;46650.63;5084132;28;20028;-60
2023/09/13 05:16:20;;;;;;;41.03;20.50;;;;;;;-145.18;100.00;46642.81;5091148;28;20479;-61
2023/09/13 05:18:46;;;;;;;38.77;19.67;;;;;;;-145.18;100.00;46652.59;5085428;28;20027;-60
2023/09/13 05:21:11;;;;;;;41.37;21.23;;;;;;;-145.18;100.00;46640.88;5087280;28;20448;-60
2023/09/13 05:23:37;;;;;;;39.70;20.17;;;;;;;-145.18;100.00;46650.63;5085089;28;20479;-60
2023/09/13 05:26:03;;;;;;;39.33;19.57;;;;;;;-145.18;100.00;46642.81;5086608;28;20035;-60
2023/09/13 05:28:33;;;;;;;37.17;20.07;;;;;;;-145.18;100.00;46640.88;5082465;28;20070;-60
2023/09/13 05:30:58;;;;;;;38.40;19.57;;;;;;;-145.18;100.00;46642.81;5086090;28;20503;-60
2023/09/13 05:33:25;;;;;;;41.17;20.23;;;;;;;-145.18;100.00;46652.59;5083266;28;20036;-60
2023/09/13 05:35:53;;;;;;;46.57;20.47;;;;;;;-145.18;100.00;46650.63;5085391;28;20442;-60
2023/09/13 05:38:18;;;;;;;39.20;19.07;;;;;;;-145.18;100.00;46652.59;5087667;28;20081;-61
2023/09/13 05:40:44;;;;;;;45.60;19.97;;;;;;;-145.18;100.00;46650.63;5058220;28;20044;-60
2023/09/13 05:43:09;;;;;;;36.77;18.23;;;;;;;-145.18;100.00;46638.91;5079483;28;20450;-60
2023/09/13 05:45:35;;;;;;;36.77;18.70;;;;;;;-145.18;100.00;46650.63;5084033;28;20028;-60
2023/09/13 05:48:02;;;;;;;40.10;19.77;;;;;;;-145.18;100.00;46640.88;5108752;28;20039;-60
2023/09/13 05:50:27;;;;;;;38.60;19.40;;;;;;;-145.18;100.00;46648.69;5083418;28;20025;-60
2023/09/13 05:52:53;;;;;;;38.93;19.67;;;;;;;-145.18;100.00;46640.88;5075737;28;20035;-61
2023/09/13 05:55:18;;;;;;;41.33;18.57;;;;;;;-145.18;100.00;46638.91;5091024;28;20032;-60
2023/09/13 05:57:44;;;;;;;38.40;19.17;;;;;;;-145.18;100.00;46640.88;5089731;28;20043;-61
2023/09/13 06:00:11;;;;;;;41.30;19.87;;;;;;;-145.18;100.00;46640.88;5091975;28;20503;-60
2023/09/13 06:02:37;;;;;;;32.80;17.63;;;;;;;-145.18;100.00;46636.94;5089732;28;20567;-60
2023/09/13 06:05:03;;;;;;;29.40;15.83;;;;;;;-145.18;100.00;46638.91;5093537;28;20107;-60
2023/09/13 06:07:28;;;;;;;25.63;12.83;;;;;;;-145.18;100.00;46640.88;5089564;28;20483;-60
2023/09/13 06:09:54;;;;;;;16.57;8.60;;;;;;;-145.18;100.00;46652.59;5089854;28;20043;-60
2023/09/13 06:12:19;;;;;;;18.07;8.13;;;;;;;-145.18;100.00;46650.63;5087596;28;20381;-60
2023/09/13 06:14:45;;;;;;;10.30;5.20;;;;;;;-145.18;100.00;46656.50;5092595;28;20020;-60
2023/09/13 06:17:11;;;;;;;10.50;4.77;;;;;;;-145.18;100.00;46660.41;5090414;28;20065;-60
2023/09/13 06:19:36;;;;;;;8.53;3.50;;;;;;;-145.18;100.00;46660.41;5092143;28;20102;-61
2023/09/13 06:22:02;;;;;;;5.63;2.23;;;;;;;-145.18;100.00;46658.44;5091009;28;20314;-60
2023/09/13 06:24:28;;;;;;;3.90;1.87;;;;;;;-145.18;100.00;46660.41;5091699;28;20383;-60
2023/09/13 06:26:54;;;;;;;4.07;1.60;;;;;;;-145.18;100.00;46660.41;5091410;28;20032;-61
2023/09/13 06:29:21;;;;;;;4.53;1.03;;;;;;;-145.18;100.00;46660.41;5091845;28;20048;-61
2023/09/13 06:31:48;;;;;;;4.53;1.50;;;;;;;-145.18;100.00;46660.41;5089271;28;20101;-60
2023/09/13 06:34:13;;;;;;;6.37;1.27;;;;;;;-145.18;100.00;46660.41;5090135;28;20069;-61
2023/09/13 06:36:40;;;;;;;3.87;1.00;;;;;;;-145.18;100.00;46660.41;5089075;28;20039;-61
2023/09/13 06:39:05;;;;;;;3.37;1.10;;;;;;;-145.18;100.00;46627.19;5089683;28;20027;-60
2023/09/13 06:41:30;;;;;;;4.57;1.27;;;;;;;-145.18;100.00;46629.13;5088992;28;20093;-60
2023/09/13 06:43:56;;;;;;;1.77;0.80;;;;;;;-145.18;100.00;46660.41;5090418;28;20120;-61
2023/09/13 06:46:21;;;;;;;1.90;0.70;;;;;;;-145.18;100.00;46631.09;5087945;28;20024;-61
2023/09/13 06:48:46;;;;;;;7.00;0.90;;;;;;;-145.18;100.00;46629.13;5090325;28;20028;-60
2023/09/13 06:51:12;;;;;;;4.87;0.90;;;;;;;-145.18;100.00;46660.41;5087586;28;20472;-61
2023/09/13 06:53:37;;;;;;;3.07;1.07;;;;;;;-145.18;100.00;46660.41;5089823;28;20031;-60
2023/09/13 06:56:04;;;;;;;4.00;1.27;;;;;;;-145.18;100.00;46627.19;5071455;28;20042;-61
2023/09/13 06:58:29;;;;;;;3.70;0.90;;;;;;;-145.18;100.00;46629.13;5089133;28;20035;-71
2023/09/13 07:00:54;;;;;;;5.83;1.00;;;;;;;-145.18;100.00;46631.09;5089116;28;20032;-71
2023/09/13 07:03:20;;;;;;;2.03;1.00;;;;;;;-145.18;100.00;46660.41;5089131;28;20031;-71
2023/09/13 07:05:45;;;;;;;3.50;0.93;;;;;;;-145.18;100.00;46660.41;5091146;28;20036;-71
2023/09/13 07:08:10;;;;;;;2.57;0.80;;;;;;;-145.18;100.00;46633.06;5087223;28;20031;-71
2023/09/13 07:10:37;;;;;;;2.20;0.80;;;;;;;-145.18;100.00;46633.06;5087279;28;20372;-71
2023/09/13 07:13:04;;;;;;;5.00;1.10;;;;;;;-145.18;100.00;46638.91;5085845;28;20475;-71
2023/09/13 07:15:29;;;;;;;2.50;1.10;;;;;;;-145.18;100.00;46633.06;5087738;28;20034;-71
2023/09/13 07:17:54;;;;;;;3.47;0.97;;;;;;;-145.18;100.00;46636.94;5073261;28;20028;-71
2023/09/13 07:20:20;;;;;;;1.43;0.80;;;;;;;-145.18;100.00;46638.91;5083284;28;20036;-70
2023/09/13 07:22:45;;;;;;;2.47;1.00;;;;;;;-145.18;100.00;46640.88;5087338;28;20024;-71
2023/09/13 07:25:11;;;;;;;2.43;0.80;;;;;;;-145.18;100.00;46640.88;5087786;28;20043;-71
2023/09/13 07:27:36;;;;;;;1.83;1.10;;;;;;;-145.18;100.00;46635.00;5088906;28;20475;-71
2023/09/13 07:30:08;;;;;;;3.23;0.80;;;;;;;-145.18;100.00;46636.94;5091721;28;20103;-71
2023/09/13 07:32:34;;;;;;;4.67;1.10;;;;;;;-145.18;100.00;46642.81;5088150;28;20056;-71
2023/09/13 07:34:59;;;;;;;3.57;1.10;;;;;;;-145.18;100.00;46644.78;5090381;28;20039;-71
2023/09/13 07:37:27;;;;;;;1.87;0.70;;;;;;;-145.18;100.00;46642.81;5088123;28;20395;-71
2023/09/13 07:39:52;;;;;;;3.33;1.00;;;;;;;-145.18;100.00;46646.72;5089837;28;20129;-71
2023/09/13 07:42:18;;;;;;;3.03;1.00;;;;;;;-145.18;100.00;46648.69;5089698;28;20479;-71
2023/09/13 07:44:43;;;;;;;4.30;1.20;;;;;;;-145.18;100.00;46648.69;5091535;28;20028;-71
2023/09/13 07:47:08;;;;;;;1.43;1.00;;;;;;;-145.18;100.00;46650.63;5092106;28;20549;-71
2023/09/13 07:49:34;;;;;;;2.83;0.87;;;;;;;-145.18;100.00;46646.72;5081650;28;20066;-71
2023/09/13 07:51:59;;;;;;;4.20;1.07;;;;;;;-145.18;100.00;46650.63;5092296;28;20631;-71
2023/09/13 07:54:25;;;;;;;1.77;1.10;;;;;;;-145.18;100.00;46654.53;5094015;28;20115;-71
2023/09/13 07:56:50;;;;;;;1.93;0.90;;;;;;;-145.18;100.00;46654.53;5095382;28;20099;-71
2023/09/13 07:59:17;;;;;;;3.20;1.17;;;;;;;-145.18;100.00;46660.41;5084810;28;20033;-71
2023/09/13 08:01:42;;;;;;;2.70;0.90;;;;;;;-145.18;100.00;46668.22;5076373;28;20032;-71
2023/09/13 08:04:08;;;;;;;2.47;0.93;;;;;;;-145.18;100.00;46668.22;5074083;28;20538;-71
2023/09/13 08:06:33;;;;;;;7.10;1.27;;;;;;;-145.18;100.00;46666.25;5075353;28;20032;-71
2023/09/13 08:08:59;;;;;;;7.10;1.67;;;;;;;-145.18;100.00;46668.22;5076108;28;20059;-71
2023/09/13 08:11:25;;;;;;;3.97;1.37;;;;;;;-145.18;100.00;46668.22;5076826;28;20476;-71
2023/09/13 08:13:50;;;;;;;4.10;1.10;;;;;;;-145.18;100.00;46672.13;5086913;28;20029;-71
2023/09/13 08:16:16;;;;;;;4.53;1.50;;;;;;;-145.18;100.00;46672.13;5074909;28;20391;-71
2023/09/13 08:18:41;;;;;;;2.77;1.23;;;;;;;-145.18;100.00;46672.13;5083400;28;20077;-71
2023/09/13 08:21:07;;;;;;;3.77;1.27;;;;;;;-145.18;100.00;46677.97;5078743;28;20032;-71
2023/09/13 08:23:33;;;;;;;3.20;1.03;;;;;;;-145.18;100.00;46670.16;5075141;28;20098;-71
2023/09/13 08:25:58;;;;;;;4.53;1.23;;;;;;;-145.18;100.00;46672.13;5075538;28;20036;-72
2023/09/13 08:28:24;;;;;;;3.97;1.20;;;;;;;-145.18;100.00;46672.13;5075417;28;20040;-73
2023/09/13 08:30:49;;;;;;;4.93;1.30;;;;;;;-145.18;100.00;46676.03;5089041;28;20438;-72
2023/09/13 08:33:16;;;;;;;6.17;1.93;;;;;;;-145.18;100.00;46679.94;5075912;28;20024;-73
2023/09/13 08:35:42;;;;;;;4.03;1.13;;;;;;;-145.18;100.00;46677.97;5076227;28;20112;-73
2023/09/13 08:38:07;;;;;;;5.63;1.47;;;;;;;-145.18;100.00;46674.06;5076637;28;20534;-72
2023/09/13 08:40:33;;;;;;;3.60;1.10;;;;;;;-145.18;100.00;46681.88;5087853;28;20028;-73
2023/09/13 08:42:59;;;;;;;3.77;1.23;;;;;;;-145.18;100.00;46679.94;5076465;28;20039;-73
2023/09/13 08:45:25;;;;;;;4.97;1.30;;;;;;;-145.18;100.00;46677.97;5075517;28;20044;-72
2023/09/13 08:47:55;;;;;;;3.13;0.90;;;;;;;-145.18;100.00;46666.25;5087400;28;20040;-73
2023/09/13 08:50:25;;;;;;;4.07;1.20;;;;;;;-145.18;100.00;46578.34;5091778;28;20031;-72
2023/09/13 08:52:51;;;;;;;2.50;1.23;;;;;;;-145.18;100.00;46558.81;5089360;28;20062;-72
2023/09/13 08:55:19;;;;;;;6.53;1.20;;;;;;;-145.18;100.00;46551.00;5094152;28;20556;-73
2023/09/13 08:57:47;;;;;;;3.73;1.13;;;;;;;-145.18;100.00;46556.88;5091186;28;20032;-72
2023/09/13 09:00:14;;;;;;;4.57;1.23;;;;;;;-145.18;100.00;46552.97;5094190;28;20032;-72
2023/09/13 09:02:42;;;;;;;3.83;1.00;;;;;;;-145.18;100.00;46552.97;5093204;28;20508;-72
2023/09/13 09:05:11;;;;;;;2.20;1.10;;;;;;;-145.18;100.00;46551.00;5093412;28;20111;-72
2023/09/13 09:07:38;;;;;;;2.30;1.00;;;;;;;-145.18;100.00;46552.97;5094104;28;20027;-73
2023/09/13 09:10:11;;;;;;;3.10;1.20;;;;;;;-145.18;100.00;46549.06;5093396;28;20096;-71
2023/09/13 09:12:40;;;;;;;3.63;1.10;;;;;;;-145.18;100.00;46558.81;5093467;28;20039;-73
2023/09/13 09:15:08;;;;;;;2.13;1.20;;;;;;;-145.18;100.00;46558.81;5091861;28;20586;-73
2023/09/13 09:17:35;;;;;;;1.70;0.80;;;;;;;-145.18;100.00;46560.78;5094164;28;20019;-63
2023/09/13 09:20:01;;;;;;;3.60;1.00;;;;;;;-145.18;100.00;46564.69;5089796;28;20078;-63
2023/09/13 09:22:32;;;;;;;3.93;1.20;;;;;;;-145.18;100.00;46564.69;5091617;28;20028;-62
2023/09/13 09:24:59;;;;;;;2.83;0.90;;;;;;;-145.18;100.00;46566.63;5088518;28;20442;-62
2023/09/13 09:27:24;;;;;;;2.63;0.87;;;;;;;-145.18;100.00;46568.59;5092026;28;20081;-64
2023/09/13 09:30:00;;;;;;;3.27;1.00;;;;;;;-145.18;100.00;46558.81;5091374;28;20032;-64
2023/09/13 09:32:29;;;;;;;1.85;1.10;;;;;;;-145.18;100.00;46562.72;5092614;28;20051;-63
2023/09/13 09:34:57;;;;;;;1.53;1.10;;;;;;;-145.18;100.00;46568.59;5085672;28;20119;-62
2023/09/13 09:37:30;;;;;;;3.30;1.00;;;;;;;-145.18;100.00;46570.53;5085146;28;20044;-63
2023/09/13 09:39:55;;;;;;;1.53;1.00;;;;;;;-145.18;100.00;46556.88;5078082;28;20575;-63
2023/09/13 09:42:21;;;;;;;4.03;1.20;;;;;;;-145.18;100.00;46564.69;5080144;28;20099;-62
2023/09/13 09:44:46;;;;;;;2.63;1.20;;;;;;;-145.18;100.00;46580.31;5077584;28;20016;-62
2023/09/13 09:47:13;;;;;;;4.60;1.07;;;;;;;-145.18;100.00;46566.63;5087961;28;20051;-63
2023/09/13 09:49:40;;;;;;;2.43;1.07;;;;;;;-145.18;100.00;46562.72;5087064;28;20107;-62
2023/09/13 09:52:07;;;;;;;3.00;1.10;;;;;;;-145.18;100.00;46558.81;5089340;28;20054;-63
2023/09/13 09:54:34;;;;;;;2.17;1.00;;;;;;;-145.18;100.00;46593.97;5084457;28;20361;-62
2023/09/13 09:56:59;;;;;;;2.80;1.10;;;;;;;-145.18;100.00;46582.25;5090563;28;20032;-62
2023/09/13 09:59:28;;;;;;;1.90;1.10;;;;;;;-145.18;100.00;46595.94;5070310;28;20105;-62
2023/09/13 10:01:58;;;;;;;2.83;1.40;;;;;;;-145.18;100.00;46576.41;5090035;28;20145;-62
2023/09/13 10:04:24;;;;;;;1.57;1.10;;;;;;;-145.18;100.00;46582.25;5087508;28;20090;-62
2023/09/13 10:07:03;;;;;;;3.00;1.17;;;;;;;-145.18;100.00;46578.34;5089956;28;20040;-62
2023/09/13 10:09:43;;;;;;;3.33;1.30;;;;;;;-145.18;100.00;46590.06;5084947;28;20031;-62
2023/09/13 10:12:10;;;;;;;2.57;1.30;;;;;;;-145.18;100.00;46599.84;5091640;28;20032;-63
2023/09/13 10:14:37;;;;;;;3.33;1.37;;;;;;;-145.18;100.00;46607.66;5085267;28;20034;-62
2023/09/13 10:17:04;;;;;;;2.07;1.40;;;;;;;-145.18;100.00;46599.84;5083135;28;20376;-62
2023/09/13 10:19:30;;;;;;;2.30;1.40;;;;;;;-145.18;100.00;46599.84;5086344;28;20510;-62
2023/09/13 10:21:57;;;;;;;3.97;1.40;;;;;;;-145.18;100.00;46593.97;5091629;28;20042;-62
2023/09/13 10:24:24;;;;;;;5.20;1.03;;;;;;;-145.18;100.00;46597.88;5079410;28;20037;-63
2023/09/13 10:26:53;;;;;;;5.17;1.53;;;;;;;-145.18;100.00;46605.69;5075187;28;20020;-62
2023/09/13 10:29:31;;;;;;;3.83;1.20;;;;;;;-145.18;100.00;46658.44;5077871;28;20024;-62
2023/09/13 10:32:07;;;;;;;2.53;1.23;;;;;;;-145.18;100.00;46603.75;5075630;28;20060;-62
2023/09/13 10:34:34;;;;;;;5.03;1.80;;;;;;;-145.18;100.00;46574.44;5077592;28;20028;-62
2023/09/13 10:37:05;;;;;;;3.33;1.30;;;;;;;-145.18;100.00;46627.19;5077678;28;20025;-62
2023/09/13 10:39:34;;;;;;;5.07;1.70;;;;;;;-145.18;100.00;46898.72;5080318;28;20034;-62
2023/09/13 10:42:06;;;;;;;3.40;1.20;;;;;;;-145.18;100.00;46689.69;5087945;28;20024;-62
2023/09/13 10:44:34;;;;;;;5.53;1.27;;;;;;;-145.18;100.00;47041.31;5079102;28;20032;-62
2023/09/13 10:47:00;;;;;;;2.50;1.30;;;;;;;-145.18;100.00;47125.31;5085139;28;20361;-62
2023/09/13 10:49:25;;;;;;;3.17;1.10;;;;;;;-145.18;100.00;47180.03;5086863;28;20107;-62
2023/09/13 10:51:53;;;;;;;2.23;1.30;;;;;;;-145.18;100.00;47144.84;5090771;28;20073;-62
2023/09/13 10:54:19;;;;;;;3.53;1.33;;;;;;;-145.18;100.00;47121.41;5082787;28;20442;-62
2023/09/13 10:56:45;;;;;;;2.23;1.20;;;;;;;-145.18;100.00;47086.25;5086124;28;20031;-62